Time;durP1;ratioP1;P1;durP2;ratioP2;P2;SDS_P1;SDS_P2;PMS_P1;PMS_P2;Temp;Humidity;BMP_temperature;BMP_pressure;BME280_temperature;BME280_humidity;BME280_pressure;Samples;Min_cycle;Max_cycle;Signal;HPM_P1;HPM_P2
2021/01/12 00:00:54;;;;;;;1.40;1.30;;;2.90;99.90;;;;;;20619765;28;20232;-74
2021/01/12 00:10:57;;;;;;;0.67;0.67;;;2.80;99.90;;;;;;20687433;28;20222;-73
2021/01/12 00:21:00;;;;;;;0.37;0.33;;;2.80;99.90;;;;;;20704114;28;20232;-75
2021/01/12 00:31:04;;;;;;;0.97;0.97;;;2.90;99.90;;;;;;20700774;28;20234;-73
2021/01/12 00:41:07;;;;;;;0.73;0.57;;;3.20;99.90;;;;;;20622153;28;20314;-75
2021/01/12 00:51:10;;;;;;;0.80;0.50;;;3.20;99.90;;;;;;20619188;28;20233;-75
2021/01/12 01:01:13;;;;;;;1.27;0.93;;;3.20;99.90;;;;;;20620650;28;20227;-73
2021/01/12 01:11:18;;;;;;;1.40;0.50;;;3.00;99.90;;;;;;20618780;28;20242;-74
2021/01/12 01:21:21;;;;;;;4.80;0.80;;;2.90;99.90;;;;;;20601274;28;20204;-73
2021/01/12 01:31:23;;;;;;;2.27;0.80;;;2.80;99.90;;;;;;20612354;28;20225;-73
2021/01/12 01:41:27;;;;;;;1.17;0.47;;;2.80;99.90;;;;;;20536695;28;20519;-73
2021/01/12 01:51:31;;;;;;;3.30;1.60;;;2.70;99.90;;;;;;20533360;28;20235;-73
2021/01/12 02:01:35;;;;;;;0.20;0.20;;;2.70;99.90;;;;;;20533436;28;20488;-75
2021/01/12 02:11:43;;;;;;;0.33;0.33;;;2.60;99.90;;;;;;20533025;28;20236;-76
2021/01/12 02:21:48;;;;;;;2.57;0.70;;;2.40;99.90;;;;;;20534050;28;20200;-78
2021/01/12 02:31:52;;;;;;;1.90;1.80;;;2.30;99.90;;;;;;20540035;28;20229;-75
2021/01/12 02:41:55;;;;;;;0.23;0.20;;;2.30;99.90;;;;;;20595350;28;20703;-73
2021/01/12 02:51:59;;;;;;;1.33;1.03;;;2.30;99.90;;;;;;20611595;28;20226;-73
2021/01/12 03:02:01;;;;;;;1.17;0.97;;;2.30;99.90;;;;;;20611603;28;20231;-75
2021/01/12 03:12:07;;;;;;;0.67;0.67;;;2.20;99.90;;;;;;20611744;28;20231;-75
2021/01/12 03:22:10;;;;;;;1.10;0.77;;;2.00;99.90;;;;;;20605841;28;20191;-75
2021/01/12 03:32:13;;;;;;;2.30;0.77;;;2.00;99.90;;;;;;20616404;28;20677;-75
2021/01/12 03:42:16;;;;;;;0.30;0.30;;;2.00;99.90;;;;;;20544740;28;20192;-76
2021/01/12 03:52:19;;;;;;;1.87;1.47;;;2.10;99.90;;;;;;20526790;28;20642;-75
2021/01/12 04:02:22;;;;;;;0.70;0.70;;;2.20;99.90;;;;;;20544154;28;20239;-73
2021/01/12 04:12:29;;;;;;;0.63;0.63;;;2.20;99.90;;;;;;20543878;28;20200;-72
2021/01/12 04:22:32;;;;;;;0.40;0.40;;;2.10;99.90;;;;;;20541780;28;20204;-73
2021/01/12 04:32:38;;;;;;;0.43;0.43;;;2.30;99.90;;;;;;20554406;28;20199;-72
2021/01/12 04:42:43;;;;;;;1.40;1.30;;;2.30;99.90;;;;;;20621380;28;20234;-72
2021/01/12 04:52:49;;;;;;;0.80;0.80;;;2.30;99.90;;;;;;20622665;28;20216;-74
2021/01/12 05:03:00;;;;;;;0.87;0.77;;;2.70;99.90;;;;;;20619430;28;20238;-74
2021/01/12 05:13:05;;;;;;;0.43;0.43;;;2.70;99.90;;;;;;20618749;28;20269;-74
2021/01/12 05:23:10;;;;;;;0.33;0.33;;;2.80;99.90;;;;;;20620121;28;20225;-76
2021/01/12 05:33:19;;;;;;;2.00;1.20;;;3.20;99.90;;;;;;20600572;28;20224;-75
2021/01/12 05:43:32;;;;;;;2.00;1.27;;;3.20;99.90;;;;;;20536351;28;20234;-74
2021/01/12 05:54:05;;;;;;;0.60;0.60;;;3.30;99.90;;;;;;20537794;28;20455;-72
2021/01/12 06:04:10;;;;;;;1.83;1.10;;;3.00;99.90;;;;;;20532461;28;20228;-71
2021/01/12 06:14:15;;;;;;;1.27;1.03;;;2.80;99.90;;;;;;20516929;28;20196;-76
2021/01/12 06:24:28;;;;;;;1.40;1.30;;;2.80;99.90;;;;;;20514618;28;20798;-75
2021/01/12 06:34:32;;;;;;;1.17;1.07;;;2.70;99.90;;;;;;20533810;28;20200;-75
2021/01/12 06:44:37;;;;;;;0.23;0.23;;;3.00;99.90;;;;;;20531124;28;20306;-73
2021/01/12 06:54:41;;;;;;;0.20;0.20;;;3.10;99.90;;;;;;20538516;28;20308;-77
2021/01/12 07:05:12;;;;;;;0.63;0.30;;;3.20;99.90;;;;;;20548075;28;20235;-74
2021/01/12 07:15:17;;;;;;;0.20;0.20;;;4.00;99.90;;;;;;20545353;28;20237;-76
2021/01/12 07:25:21;;;;;;;0.33;0.33;;;4.00;99.90;;;;;;20545323;28;20378;-75
2021/01/12 07:35:26;;;;;;;0.60;0.60;;;4.00;99.90;;;;;;20546487;28;20272;-75
2021/01/12 07:45:30;;;;;;;0.60;0.60;;;3.60;99.90;;;;;;20527373;28;20504;-74
2021/01/12 07:55:34;;;;;;;1.07;0.93;;;3.50;99.90;;;;;;20540650;28;20200;-78
2021/01/12 08:05:38;;;;;;;0.20;0.17;;;3.70;99.90;;;;;;20523369;28;20705;-75
2021/01/12 08:15:44;;;;;;;1.13;0.93;;;3.60;99.90;;;;;;20541683;28;20200;-76
2021/01/12 08:25:47;;;;;;;5.20;1.70;;;4.30;99.90;;;;;;20540112;28;20659;-77
2021/01/12 08:35:55;;;;;;;3.50;2.47;;;4.70;99.90;;;;;;20550935;28;20200;-75
2021/01/12 08:45:59;;;;;;;1.13;0.70;;;4.70;99.90;;;;;;20600461;28;20954;-77
2021/01/12 08:56:07;;;;;;;0.87;0.73;;;5.10;99.90;;;;;;20573242;28;20192;-73
2021/01/12 09:06:18;;;;;;;0.60;0.40;;;4.90;99.90;;;;;;20538331;28;20240;-75
2021/01/12 09:16:23;;;;;;;3.80;0.53;;;4.80;99.90;;;;;;20536608;28;20677;-74
2021/01/12 09:26:27;;;;;;;0.67;0.67;;;5.40;99.90;;;;;;20536295;28;20251;-75
2021/01/12 09:36:33;;;;;;;1.30;0.80;;;5.40;99.90;;;;;;20613628;28;20493;-75
2021/01/12 09:46:36;;;;;;;2.43;1.40;;;5.90;99.90;;;;;;20608504;28;20351;-75
2021/01/12 09:56:39;;;;;;;0.80;0.80;;;6.00;99.90;;;;;;20612344;28;20447;-76
2021/01/12 10:06:42;;;;;;;1.17;1.07;;;6.20;99.90;;;;;;20546158;28;20239;-73
2021/01/12 10:16:47;;;;;;;1.70;1.03;;;6.80;99.90;;;;;;20608007;28;20686;-76
2021/01/12 10:26:56;;;;;;;0.87;0.77;;;7.10;99.90;;;;;;20606511;28;20698;-74
2021/01/12 10:36:59;;;;;;;1.77;1.60;;;7.80;99.90;;;;;;20607247;28;20215;-72
2021/01/12 10:47:02;;;;;;;0.27;0.17;;;8.50;99.90;;;;;;20607421;28;20321;-75
2021/01/12 10:57:09;;;;;;;0.50;0.50;;;9.30;99.90;;;;;;20612968;28;20195;-73
2021/01/12 11:07:12;;;;;;;1.10;0.67;;;9.80;99.90;;;;;;20609856;28;20238;-70
2021/01/12 11:17:16;;;;;;;1.10;0.97;;;10.10;99.90;;;;;;20610289;28;20202;-74
2021/01/12 11:27:19;;;;;;;0.83;0.70;;;10.70;99.90;;;;;;20607464;28;20306;-74
2021/01/12 11:37:23;;;;;;;5.40;0.47;;;11.40;99.90;;;;;;20531270;28;20275;-78
2021/01/12 11:47:26;;;;;;;0.30;0.20;;;12.60;99.90;;;;;;20545502;28;20697;-73
2021/01/12 11:57:30;;;;;;;0.83;0.77;;;13.00;99.90;;;;;;20543927;28;20207;-76
2021/01/12 12:07:33;;;;;;;2.03;1.00;;;13.50;99.90;;;;;;20540536;28;20246;-78
2021/01/12 12:17:37;;;;;;;6.10;1.80;;;14.50;99.90;;;;;;20544258;28;20270;-76
2021/01/12 12:27:40;;;;;;;1.57;1.47;;;13.20;99.90;;;;;;20602446;28;20231;-74
2021/01/12 12:37:43;;;;;;;6.13;1.83;;;13.20;99.90;;;;;;20628038;28;20200;-75
2021/01/12 12:47:46;;;;;;;1.43;1.07;;;12.00;99.90;;;;;;20616957;28;20227;-74
2021/01/12 12:57:50;;;;;;;1.90;0.90;;;11.60;99.90;;;;;;20623093;28;20203;-75
2021/01/12 13:07:53;;;;;;;0.50;0.50;;;10.90;99.90;;;;;;20616421;28;20246;-73
2021/01/12 13:17:58;;;;;;;1.00;0.93;;;13.70;99.90;;;;;;20616459;28;20555;-78
2021/01/12 13:28:01;;;;;;;6.23;1.70;;;14.60;99.90;;;;;;20604700;28;20224;-74
2021/01/12 13:38:05;;;;;;;3.00;1.57;;;15.70;99.90;;;;;;20529212;28;20212;-75
2021/01/12 13:48:08;;;;;;;2.73;1.60;;;14.40;99.90;;;;;;20532789;28;20601;-74
2021/01/12 13:58:16;;;;;;;2.40;0.87;;;14.60;99.90;;;;;;20534263;28;20211;-77
2021/01/12 14:18:52;;;;;;;1.37;1.03;;;15.10;99.90;;;;;;21853634;23;20231;-76
2021/01/12 14:28:55;;;;;;;1.87;1.53;;;15.40;99.90;;;;;;20527652;28;20564;-78
2021/01/12 14:39:06;;;;;;;1.63;1.53;;;15.90;99.90;;;;;;20529318;28;20732;-74
2021/01/12 14:49:08;;;;;;;2.77;1.27;;;15.60;99.90;;;;;;20528704;28;20250;-75
2021/01/12 14:59:12;;;;;;;1.27;1.00;;;14.60;99.90;;;;;;20526601;28;20224;-74
2021/01/12 15:09:14;;;;;;;1.53;1.10;;;14.40;99.90;;;;;;20517936;28;20208;-76
2021/01/12 15:19:19;;;;;;;0.87;0.87;;;14.20;99.90;;;;;;20538874;28;20323;-75
2021/01/12 15:29:22;;;;;;;3.10;1.90;;;14.40;99.90;;;;;;20541415;28;20208;-74
2021/01/12 15:39:26;;;;;;;1.30;1.20;;;14.10;99.90;;;;;;20540620;28;20230;-75
2021/01/12 15:49:29;;;;;;;1.30;0.97;;;13.70;99.90;;;;;;20542199;28;20599;-75
2021/01/12 15:59:52;;;;;;;3.43;1.27;;;13.10;99.90;;;;;;20539015;28;20334;-73
2021/01/12 16:09:55;;;;;;;0.80;0.80;;;12.00;99.90;;;;;;20515239;28;20607;-73
2021/01/12 16:19:58;;;;;;;2.43;0.77;;;10.60;99.90;;;;;;20465479;28;20244;-71
2021/01/12 16:30:05;;;;;;;0.70;0.57;;;9.50;99.90;;;;;;20454366;28;20545;-72
2021/01/12 16:40:10;;;;;;;1.03;0.70;;;9.00;99.90;;;;;;20506559;28;20293;-73
2021/01/12 16:50:13;;;;;;;3.60;0.80;;;8.60;99.90;;;;;;20532435;28;20192;-72
2021/01/12 17:00:20;;;;;;;0.70;0.70;;;7.90;99.90;;;;;;20534497;28;20228;-75
2021/01/12 17:10:23;;;;;;;1.27;1.17;;;7.60;99.90;;;;;;20534241;28;20633;-75
2021/01/12 17:20:28;;;;;;;1.77;1.30;;;7.40;99.90;;;;;;20526720;28;20219;-76
2021/01/12 17:30:33;;;;;;;1.20;1.10;;;7.30;99.90;;;;;;20533416;28;20284;-84
2021/01/12 17:40:37;;;;;;;1.20;0.30;;;7.30;99.90;;;;;;20576048;28;20270;-86
2021/01/12 17:50:39;;;;;;;3.80;1.03;;;7.40;99.90;;;;;;20532688;28;20279;-85
2021/01/12 18:00:43;;;;;;;3.30;1.90;;;6.80;99.90;;;;;;20557798;28;20580;-89
2021/01/12 18:10:49;;;;;;;0.23;0.23;;;6.80;99.90;;;;;;20521237;28;20544;-82
2021/01/12 18:20:53;;;;;;;1.47;0.80;;;6.60;99.90;;;;;;20524628;28;20239;-85
2021/01/12 18:30:57;;;;;;;0.30;0.30;;;6.20;99.90;;;;;;20520605;28;20661;-82
2021/01/12 18:41:04;;;;;;;4.20;1.10;;;6.10;99.90;;;;;;20534196;28;20239;-78
2021/01/12 18:51:07;;;;;;;0.50;0.50;;;5.90;99.90;;;;;;20566152;28;20188;-83
2021/01/12 19:01:11;;;;;;;0.80;0.80;;;5.60;99.90;;;;;;20542113;28;20239;-82
2021/01/12 19:11:16;;;;;;;0.73;0.63;;;5.60;99.90;;;;;;20516293;28;20732;-82
2021/01/12 19:21:20;;;;;;;0.80;0.80;;;5.50;99.90;;;;;;20538509;28;20236;-76
2021/01/12 19:31:26;;;;;;;1.97;1.87;;;5.60;99.90;;;;;;20550803;28;20204;-83
2021/01/12 19:41:31;;;;;;;1.67;1.07;;;5.40;99.90;;;;;;20542466;28;20241;-83
2021/01/12 19:51:35;;;;;;;3.43;1.77;;;5.30;99.90;;;;;;20555700;28;20211;-84
2021/01/12 20:01:41;;;;;;;9.10;1.53;;;5.10;99.90;;;;;;20527175;28;20263;-81
2021/01/12 20:11:45;;;;;;;1.33;1.23;;;5.10;99.90;;;;;;20551378;28;20226;-83
2021/01/12 20:21:54;;;;;;;3.50;2.00;;;5.00;99.90;;;;;;20552387;28;20240;-77
2021/01/12 20:31:57;;;;;;;1.83;1.23;;;5.00;99.90;;;;;;20583368;28;20291;-88
2021/01/12 20:42:12;;;;;;;0.47;0.47;;;5.00;99.90;;;;;;20577927;28;20275;-82
2021/01/12 20:52:16;;;;;;;2.57;2.33;;;5.00;99.90;;;;;;20580909;28;20248;-88
2021/01/12 21:02:19;;;;;;;0.87;0.87;;;5.10;99.90;;;;;;20564977;28;20546;-87
2021/01/12 21:12:23;;;;;;;10.40;2.53;;;4.90;99.90;;;;;;20604544;28;20429;-85
2021/01/12 21:22:26;;;;;;;1.50;1.27;;;4.90;99.90;;;;;;20552927;28;20211;-81
2021/01/12 21:32:29;;;;;;;0.63;0.63;;;4.80;99.90;;;;;;20563454;28;20570;-86
2021/01/12 21:42:51;;;;;;;1.13;0.90;;;4.80;99.90;;;;;;20558123;28;20211;-78
2021/01/12 21:52:54;;;;;;;0.67;0.67;;;4.80;99.90;;;;;;20559461;28;20232;-80
2021/01/12 22:02:57;;;;;;;5.53;1.77;;;4.70;99.90;;;;;;20538268;28;20654;-75
2021/01/12 22:13:00;;;;;;;4.90;1.57;;;4.60;99.90;;;;;;20531372;28;20731;-72
2021/01/12 22:23:04;;;;;;;2.33;1.37;;;4.60;99.90;;;;;;20533906;28;20544;-79
2021/01/12 22:33:06;;;;;;;2.67;1.00;;;4.60;99.90;;;;;;20524072;28;20224;-77
2021/01/12 22:43:10;;;;;;;3.77;1.63;;;4.70;99.90;;;;;;20532901;28;20650;-77
2021/01/12 22:53:12;;;;;;;0.77;0.60;;;4.60;99.90;;;;;;20533865;28;20553;-74
2021/01/12 23:03:16;;;;;;;1.33;1.23;;;4.60;99.90;;;;;;20516071;28;20200;-76
2021/01/12 23:13:22;;;;;;;1.93;0.97;;;4.70;99.90;;;;;;20533489;28;20240;-76
2021/01/12 23:23:26;;;;;;;1.77;1.33;;;4.50;99.90;;;;;;20534176;28;20192;-76
2021/01/12 23:33:29;;;;;;;0.93;0.60;;;4.60;99.90;;;;;;20536602;28;20243;-75
2021/01/12 23:43:32;;;;;;;1.23;1.23;;;4.60;99.90;;;;;;20548788;28;20538;-76
2021/01/12 23:53:39;;;;;;;0.67;0.67;;;4.20;99.90;;;;;;20546322;28;20239;-75
